Archival Weather

Phoenix Deer Valley

Phoenix, Arizona (KDVT)

Report from: Wednesday, December 6, 2023 4:53 AM MST
Current time: Wednesday, April 24, 2024 12:11 PM MST

Current weather – Weather history – Daily summaries
Weather forecast

Temperature13.3°C (55.9°F)
Dew point0.6°C (33.1°F)
Winds 5 kts (2.6 m/s, 5.8 mph) North-Northeast (30°)
Visibility10 mi. (16.1 km)
Clouds Sky clear
Altimeter30.11 in.Hg (1020 mB)
Relative humidity42 %
Density altitude-261 ft. (-79 m)
Sea-level pressure101.8 kPa (1018 mB, 30.06 in.Hg)
Max temp last 6 hours19.4°C (66.9°F)
Min temp last 6 hours13.3°C (55.9°F)
Remarks Fully automated report
Automated weather observing station with precipitation discriminator
Pressure falling
Flight conditions Visual Meteorological Conditions
Raw dataKDVT 061153Z AUTO 03005KT 10SM CLR 13/01 A3011 RMK AO2 SLP179 T01330006 10194 20133 57006
An error has occurred. This application may no longer respond until reloaded. Reload 🗙